createdAt,value
2023-12-11T00:01:51.089Z,98746.25
2023-12-11T00:04:18.514Z,98739.14
2023-12-11T00:06:45.580Z,98729.11
2023-12-11T00:09:14.041Z,98731.61
2023-12-11T00:11:41.242Z,98724.53
2023-12-11T00:14:08.181Z,98726.38
2023-12-11T00:16:35.185Z,98723.58
2023-12-11T00:19:02.812Z,98715.66
2023-12-11T00:21:30.156Z,98719.41
2023-12-11T00:23:57.391Z,98725.40
2023-12-11T00:26:24.335Z,98728.56
2023-12-11T00:28:51.275Z,98726.00
2023-12-11T00:31:18.634Z,98724.10
2023-12-11T00:33:46.016Z,98726.38
2023-12-11T00:36:13.139Z,98724.49
2023-12-11T00:38:40.073Z,98724.06
2023-12-11T00:41:08.272Z,98726.41
2023-12-11T00:43:44.794Z,98724.37
2023-12-11T00:46:14.935Z,98730.53
2023-12-11T00:48:42.125Z,98723.05
2023-12-11T00:51:19.425Z,98719.26
2023-12-11T00:53:46.842Z,98720.16
2023-12-11T00:56:14.403Z,98717.00
2023-12-11T00:58:41.258Z,98715.86
2023-12-11T01:01:08.402Z,98714.94
2023-12-11T01:03:36.701Z,98718.02
2023-12-11T01:06:04.011Z,98721.92
2023-12-11T01:08:31.061Z,98718.42
2023-12-11T01:10:58.221Z,98712.74
2023-12-11T01:13:25.772Z,98714.86
2023-12-11T01:15:52.899Z,98707.80
2023-12-11T01:18:20.152Z,98695.91
2023-12-11T01:20:47.117Z,98693.98
2023-12-11T01:23:14.067Z,98689.33
2023-12-11T01:25:41.417Z,98681.86
2023-12-11T01:28:08.895Z,98673.44
2023-12-11T01:30:36.363Z,98670.83
2023-12-11T01:33:04.328Z,98675.41
2023-12-11T01:35:34.825Z,98668.58
2023-12-11T01:38:01.771Z,98663.73
2023-12-11T01:40:29.438Z,98660.60
2023-12-11T01:43:06.942Z,98657.55
2023-12-11T01:45:38.365Z,98649.98
2023-12-11T01:48:06.492Z,98650.80
2023-12-11T01:50:33.616Z,98649.73
2023-12-11T01:53:00.439Z,98642.98
2023-12-11T01:55:27.307Z,98644.95
2023-12-11T01:57:54.260Z,98643.13
2023-12-11T02:00:21.263Z,98650.02
2023-12-11T02:02:48.119Z,98646.13
2023-12-11T02:05:15.295Z,98646.81
2023-12-11T02:07:42.440Z,98649.66
2023-12-11T02:10:10.046Z,98653.24
2023-12-11T02:12:37.289Z,98656.45
2023-12-11T02:15:04.896Z,98654.77
2023-12-11T02:17:32.199Z,98659.73
2023-12-11T02:19:59.676Z,98660.63
2023-12-11T02:22:26.742Z,98668.40
2023-12-11T02:24:57.015Z,98669.95
2023-12-11T02:27:24.037Z,98671.60
2023-12-11T02:29:54.244Z,98662.21
2023-12-11T02:32:21.316Z,98657.69
2023-12-11T02:34:49.339Z,98653.36
2023-12-11T02:37:16.704Z,98653.45
2023-12-11T02:39:45.248Z,98652.11
2023-12-11T02:42:12.125Z,98649.59
2023-12-11T02:44:39.323Z,98649.22
2023-12-11T02:47:06.223Z,98641.19
2023-12-11T02:49:33.307Z,98634.56
2023-12-11T02:52:00.417Z,98634.12
2023-12-11T02:54:27.465Z,98631.02
2023-12-11T02:56:54.414Z,98630.59
2023-12-11T02:59:21.457Z,98628.91
2023-12-11T03:01:48.516Z,98628.21
2023-12-11T03:04:15.695Z,98629.94
2023-12-11T03:06:42.835Z,98627.90
2023-12-11T03:09:09.880Z,98625.20
2023-12-11T03:11:36.800Z,98625.08
2023-12-11T03:14:03.958Z,98617.84
2023-12-11T03:16:31.302Z,98612.22
2023-12-11T03:18:58.302Z,98613.17
2023-12-11T03:21:25.413Z,98615.55
2023-12-11T03:23:52.440Z,98607.12
2023-12-11T03:26:19.382Z,98597.46
2023-12-11T03:28:46.438Z,98594.38
2023-12-11T03:31:13.464Z,98599.95
2023-12-11T03:33:40.620Z,98603.21
2023-12-11T03:36:08.389Z,98598.73
2023-12-11T03:38:35.355Z,98597.45
2023-12-11T03:41:02.371Z,98595.86
2023-12-11T03:43:29.525Z,98596.77
2023-12-11T03:45:56.757Z,98594.05
2023-12-11T03:48:23.940Z,98597.46
2023-12-11T03:50:51.098Z,98596.93
2023-12-11T03:53:17.911Z,98596.69
2023-12-11T03:55:44.756Z,98594.71
2023-12-11T03:58:11.803Z,98591.84
2023-12-11T04:00:39.084Z,98594.61
2023-12-11T04:03:06.330Z,98595.73
2023-12-11T04:05:33.476Z,98597.05
2023-12-11T04:08:00.748Z,98597.64
2023-12-11T04:10:27.658Z,98598.95
2023-12-11T04:12:54.728Z,98597.55
2023-12-11T04:15:21.654Z,98600.73
2023-12-11T04:17:48.625Z,98603.63
2023-12-11T04:20:15.762Z,98596.99
2023-12-11T04:22:42.681Z,98595.33
2023-12-11T04:25:09.906Z,98596.82
2023-12-11T04:27:37.017Z,98600.55
2023-12-11T04:30:05.464Z,98593.15
2023-12-11T04:32:33.003Z,98595.70
2023-12-11T04:35:00.196Z,98598.52
2023-12-11T04:37:27.740Z,98604.45
2023-12-11T04:39:54.793Z,98607.33
2023-12-11T04:42:22.024Z,98601.67
2023-12-11T04:44:49.196Z,98599.20
2023-12-11T04:47:16.218Z,98602.06
2023-12-11T04:49:43.838Z,98609.52
2023-12-11T04:52:11.296Z,98606.91
2023-12-11T04:54:38.388Z,98606.20
2023-12-11T04:57:05.452Z,98605.44
2023-12-11T04:59:32.382Z,98603.14
2023-12-11T05:01:59.505Z,98607.47
2023-12-11T05:04:26.777Z,98608.83
2023-12-11T05:06:53.761Z,98615.17
2023-12-11T05:09:21.806Z,98618.27
2023-12-11T05:11:48.843Z,98609.86
2023-12-11T05:14:15.819Z,98603.30
2023-12-11T05:16:42.840Z,98600.70
2023-12-11T05:19:10.064Z,98600.44
2023-12-11T05:21:37.268Z,98596.23
2023-12-11T05:24:04.893Z,98601.31
2023-12-11T05:26:31.972Z,98602.27
2023-12-11T05:29:01.043Z,98594.89
2023-12-11T05:31:27.982Z,98594.27
2023-12-11T05:33:55.135Z,98594.25
2023-12-11T05:36:22.292Z,98592.89
2023-12-11T05:38:49.662Z,98597.34
2023-12-11T05:41:17.807Z,98601.27
2023-12-11T05:43:44.754Z,98602.16
2023-12-11T05:46:11.656Z,98604.84
2023-12-11T05:48:38.831Z,98600.98
2023-12-11T05:51:05.998Z,98596.73
2023-12-11T05:53:33.147Z,98591.84
2023-12-11T05:56:00.200Z,98586.83
2023-12-11T05:58:27.398Z,98589.15
2023-12-11T06:00:54.705Z,98598.02
2023-12-11T06:03:21.882Z,98586.52
2023-12-11T06:05:48.972Z,98590.55
2023-12-11T06:08:16.047Z,98587.74
2023-12-11T06:10:43.096Z,98584.77
2023-12-11T06:13:10.115Z,98580.16
2023-12-11T06:15:37.115Z,98588.42
2023-12-11T06:18:04.885Z,98584.33
2023-12-11T06:20:31.829Z,98587.87
2023-12-11T06:22:58.862Z,98587.43
2023-12-11T06:25:25.942Z,98588.38
2023-12-11T06:27:53.521Z,98588.96
2023-12-11T06:30:20.614Z,98583.33
2023-12-11T06:32:47.600Z,98584.56
2023-12-11T06:35:14.541Z,98586.52
2023-12-11T06:37:41.628Z,98586.16
2023-12-11T06:40:09.970Z,98579.39
2023-12-11T06:42:39.909Z,98575.92
2023-12-11T06:45:09.476Z,98579.73
2023-12-11T06:47:37.199Z,98584.71
2023-12-11T06:50:05.224Z,98585.38
2023-12-11T06:52:32.438Z,98583.86
2023-12-11T06:54:59.613Z,98588.36
2023-12-11T06:57:26.898Z,98589.56
2023-12-11T06:59:53.874Z,98593.09
2023-12-11T07:02:21.231Z,98601.26
2023-12-11T07:04:48.527Z,98601.33
2023-12-11T07:07:15.700Z,98597.12
2023-12-11T07:09:46.916Z,98593.63
2023-12-11T07:12:14.330Z,98589.57
2023-12-11T07:14:41.674Z,98586.55
2023-12-11T07:17:08.749Z,98582.81
2023-12-11T07:19:35.857Z,98592.66
2023-12-11T07:22:03.671Z,98593.23
2023-12-11T07:24:30.784Z,98591.65
2023-12-11T07:26:58.455Z,98592.59
2023-12-11T07:29:25.514Z,98592.34
2023-12-11T07:31:52.851Z,98591.16
2023-12-11T07:34:22.772Z,98589.10
2023-12-11T07:36:52.078Z,98589.80
2023-12-11T07:39:19.325Z,98587.67
2023-12-11T07:41:46.286Z,98586.89
2023-12-11T07:44:13.607Z,98591.13
2023-12-11T07:46:43.159Z,98590.41
2023-12-11T07:49:14.705Z,98591.00
2023-12-11T07:51:42.301Z,98585.91
2023-12-11T07:54:10.623Z,98585.73
2023-12-11T07:56:40.435Z,98585.61
2023-12-11T07:59:07.465Z,98589.73
2023-12-11T08:01:34.872Z,98593.41
2023-12-11T08:04:02.448Z,98595.27
2023-12-11T08:06:30.559Z,98592.21
2023-12-11T08:08:58.034Z,98590.94
2023-12-11T08:11:30.901Z,98592.25
2023-12-11T08:13:58.463Z,98591.36
2023-12-11T08:16:25.565Z,98593.11
2023-12-11T08:18:52.832Z,98594.64
2023-12-11T08:21:20.760Z,98592.19
2023-12-11T08:23:48.692Z,98582.21
2023-12-11T08:26:17.896Z,98565.20
2023-12-11T08:28:45.468Z,98551.85
2023-12-11T08:31:12.704Z,98544.29
2023-12-11T08:33:40.170Z,98538.02
2023-12-11T08:36:08.167Z,98534.55
2023-12-11T08:38:35.370Z,98528.98
2023-12-11T08:41:02.540Z,98529.81
2023-12-11T08:43:29.835Z,98527.46
2023-12-11T08:45:57.252Z,98528.48
2023-12-11T08:48:27.695Z,98519.38
2023-12-11T08:50:56.152Z,98512.71
2023-12-11T08:53:24.656Z,98507.30
2023-12-11T08:55:52.384Z,98506.17
2023-12-11T08:58:19.495Z,98508.70
2023-12-11T09:00:46.697Z,98508.98
2023-12-11T09:03:14.044Z,98511.88
2023-12-11T09:05:40.967Z,98512.22
2023-12-11T09:08:08.644Z,98510.42
2023-12-11T09:10:36.816Z,98508.11
2023-12-11T09:13:03.938Z,98504.73
2023-12-11T09:15:32.075Z,98502.61
2023-12-11T09:17:59.662Z,98495.64
2023-12-11T09:20:26.741Z,98494.51
2023-12-11T09:22:53.899Z,98487.07
2023-12-11T09:25:21.070Z,98482.20
2023-12-11T09:27:49.013Z,98477.80
2023-12-11T09:30:16.391Z,98475.68
2023-12-11T09:32:44.011Z,98476.10
2023-12-11T09:35:11.662Z,98478.83
2023-12-11T09:37:38.959Z,98477.15
2023-12-11T09:40:07.453Z,98473.07
2023-12-11T09:42:35.518Z,98472.48
2023-12-11T09:45:04.178Z,98463.88
2023-12-11T09:47:35.718Z,98458.39
2023-12-11T09:50:03.624Z,98459.63
2023-12-11T09:52:31.667Z,98456.09
2023-12-11T09:54:59.413Z,98460.52
2023-12-11T09:57:26.628Z,98463.70
2023-12-11T09:59:53.943Z,98460.11
2023-12-11T10:02:21.080Z,98462.09
2023-12-11T10:05:25.396Z,98455.35
2023-12-11T10:07:52.590Z,98450.16
2023-12-11T10:10:23.718Z,98438.54
2023-12-11T10:12:50.864Z,98430.27
2023-12-11T10:15:26.320Z,98425.23
2023-12-11T10:18:04.249Z,98419.27
2023-12-11T10:20:33.439Z,98414.45
2023-12-11T10:23:14.501Z,98403.48
2023-12-11T10:25:43.712Z,98407.19
2023-12-11T10:28:12.434Z,98409.48
2023-12-11T10:30:59.916Z,98410.43
2023-12-11T10:33:28.963Z,98406.81
2023-12-11T10:36:16.705Z,98399.54
2023-12-11T10:38:44.056Z,98397.15
2023-12-11T10:41:32.200Z,98387.45
2023-12-11T10:44:08.972Z,98388.34
2023-12-11T10:46:45.187Z,98398.23
2023-12-11T10:49:12.997Z,98414.56
2023-12-11T10:51:41.046Z,98405.34
2023-12-11T10:54:10.393Z,98407.67
2023-12-11T10:56:38.252Z,98419.41
2023-12-11T10:59:06.149Z,98427.73
2023-12-11T11:01:34.042Z,98432.14
2023-12-11T11:04:02.804Z,98427.23
2023-12-11T11:06:30.807Z,98430.88
2023-12-11T11:09:05.420Z,98431.30
2023-12-11T11:11:38.621Z,98428.76
2023-12-11T11:14:25.704Z,98418.77
2023-12-11T11:16:54.555Z,98408.95
2023-12-11T11:19:22.505Z,98407.92
2023-12-11T11:29:41.476Z,98393.23
2023-12-11T11:32:10.452Z,98397.18
2023-12-11T11:42:18.389Z,98382.41
2023-12-11T11:44:46.455Z,98386.71
2023-12-11T11:47:20.562Z,98381.77
2023-12-11T11:49:49.432Z,98378.91
2023-12-11T11:52:22.417Z,98378.91
2023-12-11T11:54:50.325Z,98371.85
2023-12-11T11:57:18.089Z,98365.34
2023-12-11T11:59:46.062Z,98355.95
2023-12-11T12:02:21.332Z,98351.27
2023-12-11T12:04:49.156Z,98343.59
2023-12-11T12:07:17.190Z,98344.19
2023-12-11T12:17:28.482Z,98326.44
2023-12-11T12:19:57.412Z,98329.75
2023-12-11T12:22:27.353Z,98326.72
2023-12-11T12:24:56.057Z,98322.08
2023-12-11T12:27:24.519Z,98309.83
2023-12-11T12:29:55.996Z,98307.58
2023-12-11T12:32:23.738Z,98305.84
2023-12-11T12:34:53.227Z,98303.89
2023-12-11T12:37:21.151Z,98314.27
2023-12-11T12:39:49.003Z,98353.38
2023-12-11T12:42:17.061Z,98345.89
2023-12-11T12:44:44.824Z,98345.00
2023-12-11T12:55:10.655Z,98327.92
2023-12-11T12:57:37.946Z,98312.01
2023-12-11T13:00:06.462Z,98310.77
2023-12-11T13:02:34.084Z,98313.27
2023-12-11T13:05:01.306Z,98316.94
2023-12-11T13:07:29.476Z,98314.19
2023-12-11T13:09:57.204Z,98314.20
2023-12-11T13:12:25.099Z,98316.10
2023-12-11T13:14:52.499Z,98306.49
2023-12-11T13:17:20.343Z,98310.33
2023-12-11T13:19:47.575Z,98312.20
2023-12-11T13:22:14.967Z,98316.96
2023-12-11T13:24:42.236Z,98307.20
2023-12-11T13:27:09.387Z,98313.77
2023-12-11T13:29:37.729Z,98309.70
2023-12-11T13:32:05.535Z,98307.36
2023-12-11T13:34:32.979Z,98305.66
2023-12-11T13:37:00.112Z,98306.09
2023-12-11T13:39:27.262Z,98298.05
2023-12-11T13:41:54.302Z,98296.63
2023-12-11T13:44:21.956Z,98300.77
2023-12-11T13:46:48.903Z,98292.17
2023-12-11T13:49:16.085Z,98286.80
2023-12-11T13:51:43.391Z,98278.79
2023-12-11T13:54:10.785Z,98287.39
2023-12-11T13:56:38.039Z,98280.05
2023-12-11T13:59:05.702Z,98283.77
2023-12-11T14:01:33.329Z,98290.97
2023-12-11T14:04:00.917Z,98289.87
2023-12-11T14:06:28.476Z,98291.77
2023-12-11T14:08:55.543Z,98289.14
2023-12-11T14:11:22.761Z,98286.69
2023-12-11T14:13:49.802Z,98287.37
2023-12-11T14:16:16.904Z,98287.06
2023-12-11T14:18:44.475Z,98281.64
2023-12-11T14:21:11.692Z,98280.05
2023-12-11T14:23:39.439Z,98285.15
2023-12-11T14:26:06.537Z,98288.06
2023-12-11T14:28:33.625Z,98283.91
2023-12-11T14:31:01.830Z,98286.08
2023-12-11T14:33:29.493Z,98279.66
2023-12-11T14:35:56.811Z,98282.09
2023-12-11T14:38:23.858Z,98276.91
2023-12-11T14:40:51.034Z,98272.80
2023-12-11T14:43:18.209Z,98271.23
2023-12-11T14:45:46.021Z,98268.94
2023-12-11T14:48:13.556Z,98257.39
2023-12-11T14:50:42.119Z,98259.91
2023-12-11T14:53:10.764Z,98260.55
2023-12-11T14:55:43.880Z,98268.35
2023-12-11T14:58:11.815Z,98263.05
2023-12-11T15:00:39.148Z,98266.02
2023-12-11T15:03:06.342Z,98256.55
2023-12-11T15:05:33.550Z,98255.11
2023-12-11T15:08:00.707Z,98257.04
2023-12-11T15:10:28.077Z,98253.56
2023-12-11T15:12:56.267Z,98254.83
2023-12-11T15:15:23.593Z,98255.14
2023-12-11T15:17:50.727Z,98257.80
2023-12-11T15:20:20.928Z,98262.09
2023-12-11T15:22:48.220Z,98258.02
2023-12-11T15:25:15.401Z,98253.77
2023-12-11T15:27:42.408Z,98254.05
2023-12-11T15:30:10.426Z,98260.48
2023-12-11T15:32:37.774Z,98270.58
2023-12-11T15:35:05.722Z,98271.88
2023-12-11T15:37:33.573Z,98262.61
2023-12-11T15:40:01.220Z,98252.88
2023-12-11T15:42:28.622Z,98249.84
2023-12-11T15:44:55.629Z,98248.98
2023-12-11T15:47:23.712Z,98242.31
2023-12-11T15:49:52.246Z,98243.04
2023-12-11T15:52:19.515Z,98248.73
2023-12-11T15:54:46.840Z,98246.27
2023-12-11T15:57:13.936Z,98246.45
2023-12-11T15:59:42.636Z,98238.33
2023-12-11T16:02:10.521Z,98242.30
2023-12-11T16:04:37.689Z,98245.98
2023-12-11T16:07:04.939Z,98248.77
2023-12-11T16:09:31.942Z,98248.36
2023-12-11T16:11:58.986Z,98249.62
2023-12-11T16:14:26.053Z,98249.56
2023-12-11T16:16:53.211Z,98256.99
2023-12-11T16:19:20.444Z,98267.11
2023-12-11T16:21:48.238Z,98260.73
2023-12-11T16:24:15.348Z,98262.42
2023-12-11T16:26:42.411Z,98259.48
2023-12-11T16:29:09.442Z,98247.55
2023-12-11T16:31:36.601Z,98243.91
2023-12-11T16:34:04.139Z,98243.39
2023-12-11T16:36:31.612Z,98236.70
2023-12-11T16:38:59.033Z,98230.93
2023-12-11T16:41:26.726Z,98221.74
2023-12-11T16:43:53.814Z,98217.48
2023-12-11T16:46:24.007Z,98222.90
2023-12-11T16:48:51.511Z,98220.77
2023-12-11T16:51:18.819Z,98216.27
2023-12-11T16:53:47.209Z,98218.40
2023-12-11T16:56:15.566Z,98220.09
2023-12-11T16:58:42.799Z,98221.45
2023-12-11T17:01:13.231Z,98220.60
2023-12-11T17:03:41.096Z,98225.41
2023-12-11T17:06:14.818Z,98226.27
2023-12-11T17:08:42.054Z,98226.09
2023-12-11T17:11:09.147Z,98234.13
2023-12-11T17:13:39.596Z,98231.78
2023-12-11T17:16:07.528Z,98233.70
2023-12-11T17:18:35.935Z,98231.73
2023-12-11T17:21:05.840Z,98231.91
2023-12-11T17:23:33.778Z,98232.52
2023-12-11T17:26:00.926Z,98232.20
2023-12-11T17:28:27.984Z,98226.66
2023-12-11T17:30:55.083Z,98223.19
2023-12-11T17:33:24.426Z,98221.95
2023-12-11T17:35:51.494Z,98220.35
2023-12-11T17:38:18.620Z,98222.45
2023-12-11T17:40:46.787Z,98216.42
2023-12-11T17:43:13.854Z,98217.44
2023-12-11T17:45:41.801Z,98224.76
2023-12-11T17:48:09.017Z,98223.13
2023-12-11T17:50:36.413Z,98214.56
2023-12-11T17:53:03.464Z,98215.87
2023-12-11T17:55:30.688Z,98205.48
2023-12-11T17:57:57.887Z,98194.84
2023-12-11T18:00:25.152Z,98191.02
2023-12-11T18:02:52.261Z,98185.32
2023-12-11T18:05:19.924Z,98180.92
2023-12-11T18:07:47.509Z,98177.13
2023-12-11T18:10:18.588Z,98181.45
2023-12-11T18:12:46.119Z,98178.02
2023-12-11T18:15:13.240Z,98194.02
2023-12-11T18:17:40.416Z,98198.67
2023-12-11T18:20:09.311Z,98196.63
2023-12-11T18:22:36.667Z,98187.58
2023-12-11T18:25:04.738Z,98182.69
2023-12-11T18:27:35.669Z,98184.34
2023-12-11T18:30:04.036Z,98182.70
2023-12-11T18:32:31.543Z,98186.42
2023-12-11T18:35:01.282Z,98178.00
2023-12-11T18:37:29.220Z,98172.75
2023-12-11T18:39:56.920Z,98165.58
2023-12-11T18:42:24.267Z,98164.32
2023-12-11T18:44:54.167Z,98159.87
2023-12-11T18:47:21.348Z,98157.06
2023-12-11T18:49:49.576Z,98152.54
2023-12-11T18:52:17.938Z,98153.51
2023-12-11T18:54:45.511Z,98153.84
2023-12-11T18:57:17.359Z,98150.67
2023-12-11T18:59:45.056Z,98145.33
2023-12-11T19:02:12.940Z,98146.44
2023-12-11T19:04:40.801Z,98145.09
2023-12-11T19:07:08.833Z,98138.18
2023-12-11T19:09:36.109Z,98141.81
2023-12-11T19:12:04.210Z,98138.80
2023-12-11T19:14:31.563Z,98141.25
2023-12-11T19:16:58.901Z,98142.89
2023-12-11T19:19:26.155Z,98139.48
2023-12-11T19:21:53.734Z,98146.79
2023-12-11T19:24:20.974Z,98147.79
2023-12-11T19:26:48.115Z,98153.74
2023-12-11T19:29:16.480Z,98154.10
2023-12-11T19:31:44.053Z,98152.10
2023-12-11T19:34:11.621Z,98146.86
2023-12-11T19:36:45.201Z,98146.60
2023-12-11T19:39:13.009Z,98147.39
2023-12-11T19:41:43.807Z,98145.05
2023-12-11T19:44:11.063Z,98140.17
2023-12-11T19:46:44.985Z,98137.85
2023-12-11T19:49:12.252Z,98131.30
2023-12-11T19:51:43.379Z,98133.21
2023-12-11T19:54:10.331Z,98133.33
2023-12-11T19:56:37.459Z,98129.57
2023-12-11T19:59:04.598Z,98131.81
2023-12-11T20:01:34.854Z,98123.90
2023-12-11T20:04:02.361Z,98126.20
2023-12-11T20:06:29.840Z,98121.98
2023-12-11T20:08:56.905Z,98120.10
2023-12-11T20:11:26.697Z,98122.15
2023-12-11T20:13:53.669Z,98121.66
2023-12-11T20:16:20.721Z,98119.83
2023-12-11T20:18:47.901Z,98120.73
2023-12-11T20:21:15.905Z,98119.72
2023-12-11T20:23:42.955Z,98119.65
2023-12-11T20:26:14.611Z,98124.02
2023-12-11T20:28:42.175Z,98121.04
2023-12-11T20:31:17.334Z,98119.56
2023-12-11T20:33:44.624Z,98114.27
2023-12-11T20:36:18.124Z,98108.71
2023-12-11T20:38:45.510Z,98106.66
2023-12-11T20:41:25.871Z,98100.31
2023-12-11T20:43:58.556Z,98099.16
2023-12-11T20:46:27.106Z,98093.41
2023-12-11T20:48:54.797Z,98091.14
2023-12-11T20:51:23.730Z,98094.98
2023-12-11T20:53:51.453Z,98093.48
2023-12-11T20:56:22.387Z,98094.30
2023-12-11T20:58:50.190Z,98094.73
2023-12-11T21:01:34.924Z,98094.07
2023-12-11T21:04:04.236Z,98093.11
2023-12-11T21:06:32.383Z,98093.07
2023-12-11T21:09:00.419Z,98099.81
2023-12-11T21:11:27.709Z,98099.63
2023-12-11T21:13:54.900Z,98099.33
2023-12-11T21:16:22.106Z,98099.35
2023-12-11T21:18:50.155Z,98097.52
2023-12-11T21:21:18.268Z,98097.54
2023-12-11T21:23:46.450Z,98100.46
2023-12-11T21:26:17.849Z,98106.77
2023-12-11T21:28:45.573Z,98110.36
2023-12-11T21:31:23.188Z,98110.23
2023-12-11T21:33:51.802Z,98106.89
2023-12-11T21:36:23.693Z,98107.75
2023-12-11T21:38:50.876Z,98111.58
2023-12-11T21:41:17.928Z,98112.95
2023-12-11T21:43:46.375Z,98114.56
2023-12-11T21:46:13.992Z,98108.52
2023-12-11T21:48:43.309Z,98112.83
2023-12-11T21:51:11.240Z,98107.80
2023-12-11T21:54:37.621Z,98111.15
2023-12-11T21:57:05.437Z,98115.23
2023-12-11T21:59:39.766Z,98116.24
2023-12-11T22:02:12.970Z,98111.81
2023-12-11T22:04:41.075Z,98107.77
2023-12-11T22:07:08.913Z,98111.81
2023-12-11T22:09:36.706Z,98112.10
2023-12-11T22:12:05.289Z,98108.96
2023-12-11T22:14:33.155Z,98108.60
2023-12-11T22:17:00.920Z,98108.54
2023-12-11T22:19:28.843Z,98107.34
2023-12-11T22:21:56.784Z,98100.61
2023-12-11T22:24:24.865Z,98101.98
2023-12-11T22:26:53.228Z,98093.63
2023-12-11T22:29:20.964Z,98094.46
2023-12-11T22:31:49.676Z,98090.94
2023-12-11T22:34:17.735Z,98091.20
2023-12-11T22:36:45.591Z,98085.13
2023-12-11T22:39:13.360Z,98088.95
2023-12-11T22:41:41.114Z,98086.48
2023-12-11T22:44:08.908Z,98089.75
2023-12-11T22:46:37.007Z,98089.38
2023-12-11T22:49:04.979Z,98095.05
2023-12-11T22:51:32.804Z,98101.19
2023-12-11T22:54:00.440Z,98097.96
2023-12-11T22:56:28.094Z,98101.33
2023-12-11T22:58:55.793Z,98105.16
2023-12-11T23:01:23.628Z,98101.73
2023-12-11T23:03:51.582Z,98101.04
2023-12-11T23:06:19.394Z,98094.36
2023-12-11T23:08:47.343Z,98090.80
2023-12-11T23:11:15.120Z,98089.13
2023-12-11T23:13:42.866Z,98093.68
2023-12-11T23:16:10.681Z,98094.26
2023-12-11T23:18:38.596Z,98093.14
2023-12-11T23:21:06.878Z,98091.13
2023-12-11T23:23:34.657Z,98087.57
2023-12-11T23:26:05.198Z,98090.70
2023-12-11T23:28:33.612Z,98091.77
2023-12-11T23:31:01.435Z,98097.15
2023-12-11T23:33:29.255Z,98097.60
2023-12-11T23:35:57.454Z,98095.88
2023-12-11T23:38:25.220Z,98085.73
2023-12-11T23:40:53.187Z,98075.45
2023-12-11T23:43:20.871Z,98071.11
2023-12-11T23:45:48.824Z,98077.30
2023-12-11T23:48:16.787Z,98075.79
2023-12-11T23:58:28.478Z,98076.50
